Time;durP1;ratioP1;P1;durP2;ratioP2;P2;SDS_P1;SDS_P2;PMS_P1;PMS_P2;Temp;Humidity;BMP_temperature;BMP_pressure;BME280_temperature;BME280_humidity;BME280_pressure;Samples;Min_cycle;Max_cycle;Signal;HPM_P1;HPM_P2
2023/01/25 00:01:59;;;;;;;20.45;14.52;;;2.00;1.00;;;;;;5025392;28;20581;-84
2023/01/25 00:04:26;;;;;;;21.15;13.40;;;2.00;1.00;;;;;;5028116;28;20292;-84
2023/01/25 00:06:53;;;;;;;20.75;12.98;;;2.60;99.90;;;;;;5029362;28;20284;-84
2023/01/25 00:09:21;;;;;;;24.55;13.73;;;2.10;99.90;;;;;;5030347;28;20215;-84
2023/01/25 00:11:50;;;;;;;19.30;13.48;;;2.10;99.90;;;;;;5026714;28;20216;-84
2023/01/25 00:14:17;;;;;;;19.52;12.25;;;2.10;99.90;;;;;;5025873;28;20417;-84
2023/01/25 00:16:45;;;;;;;20.13;13.38;;;2.10;99.90;;;;;;5025833;28;20205;-84
2023/01/25 00:19:13;;;;;;;22.42;13.90;;;;;;;;;;5025453;28;20211;-84
2023/01/25 00:21:40;;;;;;;23.83;14.32;;;2.20;1.00;;;;;;5024382;28;20269;-85
2023/01/25 00:24:09;;;;;;;19.25;13.52;;;0.90;99.90;;;;;;5023528;28;20234;-83
2023/01/25 00:26:36;;;;;;;21.45;13.60;;;;;;;;;;5024603;28;20308;-83
2023/01/25 00:29:05;;;;;;;15.70;12.23;;;2.00;99.90;;;;;;5023908;28;20618;-84
2023/01/25 00:31:41;;;;;;;20.25;13.13;;;2.10;99.90;;;;;;5022218;28;20272;-84
2023/01/25 00:34:38;;;;;;;21.15;12.32;;;1.90;1.00;;;;;;5023849;28;20243;-85
2023/01/25 00:37:24;;;;;;;20.17;12.15;;;2.20;1.00;;;;;;5025713;28;20200;-85
2023/01/25 00:39:51;;;;;;;18.83;12.55;;;1.60;99.90;;;;;;5027886;28;20189;-85
2023/01/25 00:42:19;;;;;;;21.15;12.73;;;2.00;99.90;;;;;;5027840;28;20215;-85
2023/01/25 00:44:48;;;;;;;19.70;12.50;;;1.90;1.00;;;;;;5028207;28;20237;-84
2023/01/25 00:47:16;;;;;;;18.38;13.00;;;1.80;1.00;;;;;;5026022;28;20247;-84
2023/01/25 00:49:44;;;;;;;21.42;12.52;;;2.20;1.00;;;;;;5025877;28;20209;-85
2023/01/25 00:52:12;;;;;;;22.05;14.02;;;2.30;1.00;;;;;;5025114;28;20284;-85
2023/01/25 00:54:39;;;;;;;18.63;13.50;;;2.10;1.00;;;;;;5025184;28;20228;-85
2023/01/25 00:57:06;;;;;;;22.80;13.98;;;2.10;1.00;;;;;;5030598;28;20208;-84
2023/01/25 00:59:33;;;;;;;22.77;14.27;;;2.10;1.00;;;;;;5026463;28;20210;-85
2023/01/25 01:02:01;;;;;;;21.70;13.82;;;2.10;1.00;;;;;;5024841;28;20238;-83
2023/01/25 01:04:28;;;;;;;29.90;17.75;;;2.00;99.90;;;;;;5024616;28;20228;-83
2023/01/25 01:06:55;;;;;;;23.60;15.60;;;;;;;;;;5025434;28;20221;-83
2023/01/25 01:09:23;;;;;;;27.15;16.05;;;2.50;1.00;;;;;;5026318;28;20227;-84
2023/01/25 01:11:50;;;;;;;21.92;14.45;;;2.50;1.00;;;;;;5029548;28;20239;-82
2023/01/25 01:14:18;;;;;;;24.27;16.13;;;;;;;;;;5030728;28;20825;-85
2023/01/25 01:16:45;;;;;;;24.80;15.75;;;;;;;;;;5025953;28;20200;-85
2023/01/25 01:19:14;;;;;;;25.02;16.95;;;2.30;1.00;;;;;;5024998;28;20243;-85
2023/01/25 01:21:41;;;;;;;25.80;15.57;;;;;;;;;;5028738;28;20566;-85
2023/01/25 01:24:09;;;;;;;26.25;16.05;;;2.40;1.00;;;;;;5025109;28;20315;-85
2023/01/25 01:26:36;;;;;;;25.08;14.55;;;2.30;99.90;;;;;;5024691;28;20255;-85
2023/01/25 01:29:03;;;;;;;26.45;15.35;;;2.30;1.00;;;;;;5025042;28;20228;-85
2023/01/25 01:31:30;;;;;;;21.50;15.88;;;;;;;;;;5026456;28;20189;-85
2023/01/25 01:33:58;;;;;;;22.55;15.40;;;2.70;1.00;;;;;;5039225;28;20248;-85
2023/01/25 01:36:28;;;;;;;23.80;15.48;;;2.60;1.00;;;;;;5034764;28;20279;-85
2023/01/25 01:38:55;;;;;;;24.42;16.00;;;2.40;1.00;;;;;;5026887;28;20280;-85
2023/01/25 01:41:22;;;;;;;28.30;15.82;;;2.20;1.00;;;;;;5032033;28;20216;-83
2023/01/25 01:43:51;;;;;;;25.30;15.07;;;2.20;1.00;;;;;;5032948;28;20280;-82
2023/01/25 01:46:24;;;;;;;30.27;17.20;;;2.50;1.00;;;;;;5032621;28;20215;-84
2023/01/25 01:48:54;;;;;;;28.73;17.08;;;2.70;1.00;;;;;;5026042;28;20189;-82
2023/01/25 01:51:26;;;;;;;23.50;14.38;;;2.30;1.00;;;;;;5027669;28;20199;-83
2023/01/25 01:53:58;;;;;;;30.77;15.35;;;2.30;1.00;;;;;;5027104;28;20228;-84
2023/01/25 01:56:30;;;;;;;25.65;15.48;;;2.90;99.90;;;;;;5025347;28;20192;-84
2023/01/25 01:58:58;;;;;;;29.63;16.58;;;2.50;1.00;;;;;;5023818;28;20197;-84
2023/01/25 02:01:25;;;;;;;28.77;16.77;;;;;;;;;;5024566;28;20200;-84
2023/01/25 02:03:53;;;;;;;29.85;16.48;;;2.60;1.00;;;;;;5024982;28;20747;-84
2023/01/25 02:06:32;;;;;;;25.70;15.60;;;2.20;1.00;;;;;;5023867;28;20291;-84
2023/01/25 02:09:01;;;;;;;25.02;15.55;;;2.50;1.00;;;;;;5024473;28;20188;-84
2023/01/25 02:11:28;;;;;;;25.05;14.80;;;2.40;1.00;;;;;;5024291;28;20247;-85
2023/01/25 02:13:58;;;;;;;23.83;16.50;;;2.70;1.00;;;;;;5025605;28;20234;-84
2023/01/25 02:16:27;;;;;;;28.90;17.83;;;2.50;99.90;;;;;;5025275;28;20240;-84
2023/01/25 02:18:56;;;;;;;24.48;15.20;;;2.40;1.00;;;;;;5029680;28;20268;-84
2023/01/25 02:21:24;;;;;;;28.98;16.45;;;2.50;1.00;;;;;;5027259;28;20196;-84
2023/01/25 02:23:53;;;;;;;30.05;18.00;;;2.80;1.00;;;;;;5033445;28;20239;-83
2023/01/25 02:26:23;;;;;;;31.30;16.98;;;2.20;1.00;;;;;;5037176;28;20239;-84
2023/01/25 02:28:55;;;;;;;28.60;16.92;;;2.30;1.00;;;;;;5036778;28;20201;-85
2023/01/25 02:31:21;;;;;;;26.08;16.70;;;2.10;1.00;;;;;;5036343;28;20253;-84
2023/01/25 02:33:48;;;;;;;28.83;17.38;;;2.50;1.00;;;;;;5035717;28;20295;-83
2023/01/25 02:36:23;;;;;;;24.83;16.77;;;2.30;1.00;;;;;;5036482;28;20232;-85
2023/01/25 02:38:54;;;;;;;23.48;15.07;;;2.80;1.00;;;;;;5033946;28;20248;-85
2023/01/25 02:41:31;;;;;;;27.23;14.68;;;2.20;1.00;;;;;;5031921;28;20220;-83
2023/01/25 02:43:59;;;;;;;25.48;14.68;;;2.20;1.00;;;;;;5029133;28;20287;-84
2023/01/25 02:46:30;;;;;;;24.40;14.57;;;2.10;1.00;;;;;;5026903;28;20212;-84
2023/01/25 02:48:58;;;;;;;27.40;16.73;;;2.50;1.00;;;;;;5025504;28;20224;-85
2023/01/25 02:51:26;;;;;;;26.83;17.25;;;2.60;1.00;;;;;;5022536;28;20264;-85
2023/01/25 02:53:53;;;;;;;23.00;16.45;;;2.40;1.00;;;;;;5023949;28;20235;-83
2023/01/25 02:56:21;;;;;;;26.08;15.35;;;2.40;1.00;;;;;;5023959;28;20295;-84
2023/01/25 02:58:49;;;;;;;24.90;15.40;;;2.40;1.00;;;;;;5024676;28;20235;-84
2023/01/25 03:01:16;;;;;;;18.10;12.35;;;2.50;1.00;;;;;;5024032;28;20276;-84
2023/01/25 03:03:43;;;;;;;28.65;16.40;;;2.70;1.00;;;;;;5023805;28;20221;-84
2023/01/25 03:06:10;;;;;;;20.35;13.27;;;3.30;1.00;;;;;;5027290;28;20544;-82
2023/01/25 03:08:37;;;;;;;25.25;14.32;;;2.30;1.00;;;;;;5028319;28;20263;-84
2023/01/25 03:11:05;;;;;;;22.60;15.98;;;2.30;1.00;;;;;;5023641;28;20341;-85
2023/01/25 03:13:33;;;;;;;27.58;14.77;;;2.20;1.00;;;;;;5023023;28;20307;-84
2023/01/25 03:16:04;;;;;;;27.27;14.52;;;2.20;1.00;;;;;;5023163;28;20262;-84
2023/01/25 03:18:31;;;;;;;29.50;15.95;;;2.70;1.00;;;;;;5023412;28;20195;-84
2023/01/25 03:21:05;;;;;;;25.35;15.93;;;1.90;1.00;;;;;;5023564;28;20268;-84
2023/01/25 03:23:32;;;;;;;36.28;16.52;;;2.40;1.00;;;;;;5022652;28;20257;-84
2023/01/25 03:26:09;;;;;;;25.27;17.00;;;2.20;1.00;;;;;;5021842;28;20205;-84
2023/01/25 03:28:36;;;;;;;24.42;15.30;;;2.70;1.00;;;;;;5025565;28;20212;-85
2023/01/25 03:31:05;;;;;;;23.23;16.27;;;2.50;1.00;;;;;;5025232;28;20270;-85
2023/01/25 03:33:31;;;;;;;22.33;14.73;;;2.20;1.00;;;;;;5027010;28;20323;-85
2023/01/25 03:35:59;;;;;;;23.98;15.10;;;;;;;;;;5027534;28;20208;-84
2023/01/25 03:38:26;;;;;;;24.92;15.52;;;2.10;1.00;;;;;;5027511;28;20235;-84
2023/01/25 03:40:53;;;;;;;22.00;13.20;;;2.60;1.00;;;;;;5027279;28;20230;-85
2023/01/25 03:43:21;;;;;;;15.85;10.55;;;2.30;1.00;;;;;;5027057;28;20276;-84
2023/01/25 03:45:53;;;;;;;16.40;9.68;;;2.30;1.00;;;;;;5026218;28;20201;-85
2023/01/25 03:48:22;;;;;;;21.00;11.10;;;2.30;1.00;;;;;;5025771;28;20675;-85
2023/01/25 03:50:50;;;;;;;18.55;11.90;;;2.50;1.40;;;;;;5025511;28;20209;-85
2023/01/25 03:53:27;;;;;;;21.63;15.25;;;2.40;1.00;;;;;;5025817;28;20578;-84
2023/01/25 03:55:55;;;;;;;18.40;11.68;;;2.60;1.00;;;;;;5022738;28;20195;-84
2023/01/25 03:58:22;;;;;;;24.30;15.50;;;2.50;1.00;;;;;;5022098;28;20206;-84
2023/01/25 04:00:49;;;;;;;25.73;15.90;;;2.60;18.50;;;;;;5022460;28;20299;-84
2023/01/25 04:03:18;;;;;;;20.95;13.20;;;2.60;1.00;;;;;;5023271;28;20215;-84
2023/01/25 04:05:46;;;;;;;20.25;12.05;;;2.20;5.20;;;;;;5025028;28;20208;-83
2023/01/25 04:08:13;;;;;;;23.20;14.02;;;2.70;1.00;;;;;;5029916;28;20238;-84
2023/01/25 04:10:40;;;;;;;18.52;11.60;;;2.80;1.00;;;;;;5031712;28;20204;-84
2023/01/25 04:13:07;;;;;;;20.42;12.52;;;2.20;1.00;;;;;;5026946;28;20239;-85
2023/01/25 04:15:34;;;;;;;20.20;14.18;;;;;;;;;;5026347;28;20336;-84
2023/01/25 04:18:01;;;;;;;19.58;13.00;;;2.20;1.00;;;;;;5025427;28;20201;-85
2023/01/25 04:20:28;;;;;;;19.50;12.82;;;2.10;1.00;;;;;;5025666;28;20208;-85
2023/01/25 04:22:57;;;;;;;20.80;13.57;;;2.50;1.00;;;;;;5025770;28;20501;-84
2023/01/25 04:25:23;;;;;;;21.30;15.05;;;2.60;1.00;;;;;;5026555;28;20292;-85
2023/01/25 04:27:51;;;;;;;15.77;11.75;;;2.60;1.00;;;;;;5025399;28;20311;-84
2023/01/25 04:30:18;;;;;;;21.40;11.80;;;2.50;1.00;;;;;;5025152;28;20220;-85
2023/01/25 04:32:45;;;;;;;15.95;11.30;;;2.30;13.50;;;;;;5025295;28;20235;-85
2023/01/25 04:35:11;;;;;;;18.30;12.40;;;2.20;1.00;;;;;;5024960;28;20303;-83
2023/01/25 04:37:38;;;;;;;19.25;12.65;;;2.70;1.00;;;;;;5024587;28;20223;-85
2023/01/25 04:40:08;;;;;;;17.63;11.05;;;2.40;1.00;;;;;;5029785;28;20208;-85
2023/01/25 04:42:35;;;;;;;17.08;11.48;;;2.40;1.00;;;;;;5025898;28;20205;-84
2023/01/25 04:45:02;;;;;;;23.48;13.32;;;2.00;1.00;;;;;;5025591;28;20228;-84
2023/01/25 04:47:29;;;;;;;23.60;14.05;;;2.10;84.90;;;;;;5024990;28;20458;-84
2023/01/25 04:49:56;;;;;;;19.70;12.25;;;2.20;16.00;;;;;;5028596;28;20212;-83
2023/01/25 04:52:23;;;;;;;16.88;11.90;;;;;;;;;;5033569;28;20197;-82
2023/01/25 04:54:50;;;;;;;15.35;11.18;;;2.30;99.90;;;;;;5033622;28;20232;-84
2023/01/25 04:57:18;;;;;;;19.15;11.05;;;2.20;99.90;;;;;;5035343;28;20223;-83
2023/01/25 04:59:45;;;;;;;17.92;10.98;;;2.40;99.90;;;;;;5034354;28;20269;-84
2023/01/25 05:02:11;;;;;;;16.02;10.95;;;2.00;99.90;;;;;;5034028;28;20349;-84
2023/01/25 05:04:38;;;;;;;17.08;10.20;;;2.40;70.40;;;;;;5035283;28;20299;-84
2023/01/25 05:07:05;;;;;;;16.90;10.95;;;2.10;79.60;;;;;;5034848;28;20211;-84
2023/01/25 05:09:32;;;;;;;21.23;11.07;;;2.50;99.90;;;;;;5033993;28;20232;-84
2023/01/25 05:11:59;;;;;;;14.90;10.57;;;2.20;99.90;;;;;;5032426;28;20208;-86
2023/01/25 05:14:27;;;;;;;17.40;10.90;;;2.30;1.00;;;;;;5029339;28;20292;-84
2023/01/25 05:16:54;;;;;;;16.05;11.07;;;2.40;99.90;;;;;;5027316;28;20205;-85
2023/01/25 05:19:21;;;;;;;17.70;10.35;;;;;;;;;;5027641;28;20246;-85
2023/01/25 05:22:00;;;;;;;15.57;10.82;;;2.70;1.00;;;;;;5027746;28;20223;-84
2023/01/25 05:24:28;;;;;;;20.63;11.55;;;2.30;83.50;;;;;;5025216;28;20220;-84
2023/01/25 05:27:02;;;;;;;15.30;10.02;;;2.50;17.00;;;;;;5027692;28;20269;-84
2023/01/25 05:29:34;;;;;;;16.73;10.57;;;2.00;99.90;;;;;;5028991;28;20212;-83
2023/01/25 05:32:02;;;;;;;16.75;11.43;;;2.80;99.90;;;;;;5028544;28;20280;-84
2023/01/25 05:34:28;;;;;;;18.85;11.02;;;2.10;99.90;;;;;;5048583;22;20331;-81
2023/01/25 05:36:56;;;;;;;16.85;11.85;;;2.20;99.90;;;;;;5019967;28;20201;-81
2023/01/25 05:39:23;;;;;;;15.05;10.45;;;;;;;;;;5019967;28;20235;-82
2023/01/25 05:41:50;;;;;;;15.35;9.88;;;2.70;99.90;;;;;;5019972;28;20208;-80
2023/01/25 05:44:17;;;;;;;17.38;10.57;;;2.70;99.40;;;;;;5023382;28;20748;-80
2023/01/25 05:46:45;;;;;;;14.88;11.00;;;2.60;99.90;;;;;;5020254;28;20212;-80
2023/01/25 05:49:12;;;;;;;16.15;10.23;;;2.80;99.90;;;;;;5024729;28;20220;-79
2023/01/25 05:51:39;;;;;;;22.88;10.60;;;2.10;94.60;;;;;;5021600;28;20205;-80
2023/01/25 05:54:14;;;;;;;19.13;10.65;;;2.60;99.90;;;;;;5019919;28;20235;-79
2023/01/25 05:56:41;;;;;;;18.08;10.30;;;2.30;1.00;;;;;;5028496;28;20218;-79
2023/01/25 05:59:07;;;;;;;14.18;8.40;;;2.00;99.90;;;;;;5038106;28;20264;-78
2023/01/25 06:01:34;;;;;;;15.23;11.27;;;2.10;99.90;;;;;;5028724;28;20203;-79
2023/01/25 06:04:02;;;;;;;15.25;10.15;;;2.50;99.90;;;;;;5016192;28;20583;-79
2023/01/25 06:06:33;;;;;;;18.20;11.07;;;2.60;99.90;;;;;;5016650;28;20200;-80
2023/01/25 06:09:01;;;;;;;18.88;10.90;;;2.10;99.90;;;;;;5019379;28;20224;-80
2023/01/25 06:11:28;;;;;;;16.40;9.40;;;2.20;99.90;;;;;;5017284;28;20212;-80
2023/01/25 06:13:55;;;;;;;16.70;9.50;;;1.90;99.90;;;;;;5017882;28;20262;-79
2023/01/25 06:16:21;;;;;;;20.25;10.65;;;2.30;99.90;;;;;;5017305;28;20251;-79
2023/01/25 06:18:48;;;;;;;18.90;10.40;;;2.80;99.90;;;;;;5016867;28;20200;-79
2023/01/25 06:21:16;;;;;;;13.77;10.07;;;2.00;99.90;;;;;;5016238;28;20570;-79
2023/01/25 06:23:43;;;;;;;17.33;12.48;;;;;;;;;;5017503;28;20215;-79
2023/01/25 06:26:13;;;;;;;10.18;8.27;;;2.10;93.20;;;;;;5027097;28;20295;-80
2023/01/25 06:28:40;;;;;;;13.85;9.70;;;2.00;1.00;;;;;;5026359;28;20227;-79
2023/01/25 06:31:08;;;;;;;15.77;11.25;;;2.60;1.40;;;;;;5025257;28;20244;-79
2023/01/25 06:33:36;;;;;;;13.55;9.50;;;2.20;99.90;;;;;;5017255;28;20720;-78
2023/01/25 06:36:05;;;;;;;16.80;10.35;;;2.30;99.90;;;;;;5017047;28;20275;-80
2023/01/25 06:38:33;;;;;;;15.18;10.57;;;2.10;99.90;;;;;;5016033;28;20200;-80
2023/01/25 06:41:01;;;;;;;13.85;9.20;;;2.30;99.90;;;;;;5015769;28;20667;-80
2023/01/25 06:43:28;;;;;;;14.05;10.20;;;;;;;;;;5016483;28;20220;-79
2023/01/25 06:45:58;;;;;;;16.63;10.82;;;2.00;99.90;;;;;;5016770;28;20201;-79
2023/01/25 06:48:25;;;;;;;18.60;10.93;;;;;;;;;;5017885;28;20228;-79
2023/01/25 06:50:57;;;;;;;15.80;10.18;;;2.10;99.90;;;;;;5015876;28;20255;-79
2023/01/25 06:53:26;;;;;;;16.00;10.55;;;2.00;99.90;;;;;;5016185;28;20733;-80
2023/01/25 06:56:01;;;;;;;19.92;12.02;;;2.00;99.90;;;;;;5016294;28;20204;-79
2023/01/25 06:58:29;;;;;;;16.20;10.68;;;2.70;99.90;;;;;;5016478;28;20300;-80
2023/01/25 07:01:00;;;;;;;16.17;10.73;;;2.50;32.80;;;;;;5017233;28;20200;-79
2023/01/25 07:03:27;;;;;;;20.60;11.95;;;2.20;32.10;;;;;;5016929;28;20193;-80
2023/01/25 07:05:58;;;;;;;21.80;11.48;;;2.30;44.10;;;;;;5018742;28;20675;-79
2023/01/25 07:08:24;;;;;;;20.08;11.60;;;2.30;91.40;;;;;;5020863;28;20694;-80
2023/01/25 07:10:56;;;;;;;18.60;12.50;;;2.50;99.90;;;;;;5020303;28;20636;-80
2023/01/25 07:13:25;;;;;;;21.23;13.10;;;2.60;99.90;;;;;;5020609;28;20205;-80
2023/01/25 07:15:56;;;;;;;23.98;15.30;;;2.40;98.90;;;;;;5021071;28;20299;-79
2023/01/25 07:18:23;;;;;;;19.85;13.05;;;2.10;99.90;;;;;;5020926;28;20197;-80
2023/01/25 07:20:50;;;;;;;22.23;14.30;;;2.50;99.90;;;;;;5020117;28;20697;-79
2023/01/25 07:23:17;;;;;;;21.30;12.27;;;2.20;99.90;;;;;;5021108;28;20236;-79
2023/01/25 07:25:46;;;;;;;21.90;11.18;;;2.30;99.90;;;;;;5020371;28;20331;-79
2023/01/25 07:28:13;;;;;;;22.75;13.60;;;2.00;99.90;;;;;;5022390;28;20224;-79
2023/01/25 07:30:41;;;;;;;25.55;13.82;;;2.40;99.90;;;;;;5023165;28;20288;-80
2023/01/25 07:33:08;;;;;;;25.65;15.85;;;2.50;99.90;;;;;;5026530;28;20674;-79
2023/01/25 07:35:35;;;;;;;32.72;15.82;;;2.20;99.90;;;;;;5025712;28;20331;-79
2023/01/25 07:38:02;;;;;;;23.98;15.52;;;2.50;99.90;;;;;;5026357;28;20232;-79
2023/01/25 07:40:29;;;;;;;22.60;14.38;;;2.00;99.90;;;;;;5024436;28;20188;-78
2023/01/25 07:42:56;;;;;;;23.35;14.88;;;;;;;;;;5024430;28;20205;-78
2023/01/25 07:45:28;;;;;;;23.55;13.57;;;;;;;;;;5021102;28;20577;-79
2023/01/25 07:47:58;;;;;;;26.25;13.60;;;2.00;99.90;;;;;;5022889;28;20189;-79
2023/01/25 07:50:25;;;;;;;28.27;15.30;;;1.80;99.90;;;;;;5031200;28;20204;-79
2023/01/25 07:52:52;;;;;;;36.40;19.65;;;1.70;99.90;;;;;;5029195;28;20209;-79
2023/01/25 07:55:19;;;;;;;50.22;30.25;;;;;;;;;;5027332;28;20247;-79
2023/01/25 07:57:46;;;;;;;42.33;21.90;;;2.50;99.90;;;;;;5023603;28;20204;-79
2023/01/25 08:00:14;;;;;;;35.15;19.65;;;1.80;99.90;;;;;;5021898;28;20201;-80
2023/01/25 08:02:41;;;;;;;41.78;23.40;;;2.30;99.90;;;;;;5022566;28;20208;-80
2023/01/25 08:05:10;;;;;;;31.58;16.75;;;1.90;99.90;;;;;;5023245;28;20224;-80
2023/01/25 08:07:37;;;;;;;34.88;18.80;;;1.70;99.90;;;;;;5023746;28;20204;-78
2023/01/25 08:10:05;;;;;;;33.10;18.50;;;2.40;99.90;;;;;;5020534;28;20220;-80
2023/01/25 08:12:33;;;;;;;33.42;18.30;;;2.00;99.90;;;;;;5020452;28;20216;-79
2023/01/25 08:15:00;;;;;;;32.58;18.40;;;2.20;99.90;;;;;;5020530;28;20588;-79
2023/01/25 08:17:30;;;;;;;33.72;18.25;;;;;;;;;;5022911;28;20235;-79
2023/01/25 08:19:57;;;;;;;34.30;16.67;;;2.30;99.90;;;;;;5021879;28;20224;-80
2023/01/25 08:22:25;;;;;;;27.55;17.35;;;2.20;99.90;;;;;;5024721;28;20646;-80
2023/01/25 08:24:52;;;;;;;34.22;17.75;;;;;;;;;;5023961;28;20352;-79
2023/01/25 08:27:19;;;;;;;32.38;17.90;;;2.30;99.90;;;;;;5024622;28;20212;-80
2023/01/25 08:29:46;;;;;;;29.98;17.05;;;2.30;99.90;;;;;;5023106;28;20216;-79
2023/01/25 08:32:15;;;;;;;34.95;18.50;;;1.90;1.00;;;;;;5025146;28;20209;-79
2023/01/25 08:34:41;;;;;;;35.55;18.60;;;2.20;99.90;;;;;;5025211;28;20232;-79
2023/01/25 08:37:08;;;;;;;35.67;18.48;;;1.90;99.90;;;;;;5023359;28;20214;-79
2023/01/25 08:39:36;;;;;;;29.23;18.33;;;2.10;99.90;;;;;;5021243;28;20640;-79
2023/01/25 08:42:04;;;;;;;30.85;18.42;;;2.10;99.90;;;;;;5024309;28;20600;-80
2023/01/25 08:44:32;;;;;;;30.27;16.92;;;;;;;;;;5025877;28;20224;-79
2023/01/25 08:46:59;;;;;;;29.63;17.90;;;2.40;99.90;;;;;;5024499;28;20208;-81
2023/01/25 08:49:26;;;;;;;31.27;17.63;;;2.00;99.90;;;;;;5024235;28;20279;-79
2023/01/25 08:51:53;;;;;;;29.35;16.55;;;2.10;99.90;;;;;;5020653;28;20208;-79
2023/01/25 08:54:20;;;;;;;45.92;17.60;;;2.10;99.90;;;;;;5019682;28;20230;-80
2023/01/25 08:56:48;;;;;;;27.42;17.48;;;2.20;99.90;;;;;;5022600;28;20208;-80
2023/01/25 08:59:14;;;;;;;32.40;15.45;;;2.30;99.90;;;;;;5021789;28;20207;-79
2023/01/25 09:01:41;;;;;;;33.58;15.93;;;1.90;99.90;;;;;;5020892;28;20208;-79
2023/01/25 09:04:08;;;;;;;25.80;14.48;;;1.70;99.90;;;;;;5020329;28;20228;-78
2023/01/25 09:06:35;;;;;;;28.20;16.80;;;2.20;99.90;;;;;;5018856;28;20239;-79
2023/01/25 09:09:03;;;;;;;34.25;17.50;;;1.60;99.90;;;;;;5018061;28;20231;-80
2023/01/25 09:11:30;;;;;;;33.28;17.65;;;1.70;99.90;;;;;;5018205;28;20209;-78
2023/01/25 09:13:58;;;;;;;36.50;20.67;;;2.00;99.90;;;;;;5018288;28;20224;-78
2023/01/25 09:16:29;;;;;;;24.77;14.45;;;1.80;99.90;;;;;;5017712;28;20560;-78
2023/01/25 09:18:57;;;;;;;23.90;16.13;;;2.10;1.00;;;;;;5021211;28;20212;-79
2023/01/25 09:21:24;;;;;;;27.70;15.60;;;2.00;99.90;;;;;;5028353;28;20204;-78
2023/01/25 09:23:52;;;;;;;26.27;15.23;;;0.90;99.90;;;;;;5028335;28;20224;-78
2023/01/25 09:26:19;;;;;;;26.90;16.55;;;1.90;1.00;;;;;;5030327;28;20236;-79
2023/01/25 09:28:48;;;;;;;26.50;16.38;;;1.70;99.90;;;;;;5033307;28;20264;-79
2023/01/25 09:31:16;;;;;;;29.48;14.98;;;2.10;99.90;;;;;;5026982;28;20675;-79
2023/01/25 09:33:44;;;;;;;32.00;18.10;;;1.90;99.90;;;;;;5018199;28;20295;-79
2023/01/25 09:36:11;;;;;;;37.28;18.95;;;2.30;99.90;;;;;;5016740;28;20199;-79
2023/01/25 09:38:38;;;;;;;28.75;16.23;;;2.80;1.00;;;;;;5017719;28;20204;-80
2023/01/25 09:41:20;;;;;;;34.03;16.80;;;2.20;1.00;;;;;;5019090;28;20226;-80
2023/01/25 09:44:05;;;;;;;27.60;16.27;;;1.80;1.00;;;;;;5017640;28;20722;-80
2023/01/25 09:46:40;;;;;;;30.13;16.52;;;2.00;99.90;;;;;;5019691;28;20267;-79
2023/01/25 09:49:24;;;;;;;26.58;14.73;;;1.80;99.90;;;;;;5018974;28;20650;-80
2023/01/25 09:52:05;;;;;;;30.00;15.32;;;1.70;99.90;;;;;;5018250;28;20271;-80
2023/01/25 09:54:37;;;;;;;27.77;15.43;;;1.70;1.00;;;;;;5017081;28;20230;-79
2023/01/25 09:57:04;;;;;;;27.17;16.50;;;1.70;99.90;;;;;;5017610;28;20735;-79
2023/01/25 09:59:31;;;;;;;28.23;15.55;;;2.00;99.90;;;;;;5017541;28;20223;-80
2023/01/25 10:02:05;;;;;;;25.75;16.05;;;1.50;1.00;;;;;;5018180;28;20303;-80
2023/01/25 10:04:37;;;;;;;27.70;15.77;;;1.60;1.00;;;;;;5017027;28;20228;-80
2023/01/25 10:07:14;;;;;;;25.52;14.95;;;1.50;99.90;;;;;;5016449;28;20188;-80
2023/01/25 10:09:49;;;;;;;27.40;16.42;;;1.80;1.00;;;;;;5016907;28;20303;-80
2023/01/25 10:12:19;;;;;;;28.42;14.65;;;1.90;1.00;;;;;;5017985;28;20187;-78
2023/01/25 10:14:46;;;;;;;31.15;16.45;;;1.60;1.00;;;;;;5017518;28;20231;-79
2023/01/25 10:17:25;;;;;;;22.75;14.73;;;2.10;1.00;;;;;;5017488;28;20205;-79
2023/01/25 10:20:20;;;;;;;24.98;14.07;;;1.70;1.00;;;;;;5017897;28;20635;-80
2023/01/25 10:22:50;;;;;;;28.23;14.60;;;1.80;99.90;;;;;;5017334;28;20192;-79
2023/01/25 10:25:28;;;;;;;25.90;15.15;;;1.80;99.90;;;;;;5015406;28;20231;-79
2023/01/25 10:28:08;;;;;;;24.13;15.00;;;2.20;1.00;;;;;;5017589;28;20200;-80
2023/01/25 10:30:40;;;;;;;24.40;14.23;;;1.70;1.00;;;;;;5020628;28;20213;-79
2023/01/25 10:33:13;;;;;;;26.92;15.40;;;1.60;99.90;;;;;;5037202;28;20279;-80
2023/01/25 10:35:44;;;;;;;27.23;14.63;;;2.00;1.00;;;;;;5037093;28;20328;-79
2023/01/25 10:38:18;;;;;;;31.40;16.00;;;0.90;99.90;;;;;;5023808;28;20196;-80
2023/01/25 10:40:49;;;;;;;28.38;16.08;;;1.70;1.00;;;;;;5024279;28;20263;-80
2023/01/25 10:43:19;;;;;;;27.17;16.40;;;1.60;1.00;;;;;;5031080;28;20194;-80
2023/01/25 10:45:48;;;;;;;29.83;16.35;;;2.00;1.00;;;;;;5028217;28;20232;-79
2023/01/25 10:48:21;;;;;;;30.20;17.30;;;1.90;99.90;;;;;;5023932;28;20655;-79
2023/01/25 10:50:51;;;;;;;33.35;17.42;;;2.10;1.00;;;;;;5028504;28;20222;-79
2023/01/25 10:53:30;;;;;;;35.28;19.15;;;1.90;99.90;;;;;;5030160;28;20310;-79
2023/01/25 10:56:25;;;;;;;29.75;17.17;;;1.90;1.00;;;;;;5030173;28;20204;-79
2023/01/25 10:59:05;;;;;;;39.92;18.50;;;2.10;1.00;;;;;;5007897;28;20205;-79
2023/01/25 11:01:34;;;;;;;32.90;16.73;;;1.70;1.00;;;;;;5025348;28;20251;-80
2023/01/25 11:04:02;;;;;;;30.23;16.85;;;1.90;1.00;;;;;;5025783;28;20227;-79
2023/01/25 11:06:33;;;;;;;27.38;16.50;;;2.20;1.00;;;;;;5026594;28;20315;-79
2023/01/25 11:09:00;;;;;;;34.30;20.25;;;2.50;99.90;;;;;;5022228;28;20279;-79
2023/01/25 11:11:34;;;;;;;104.90;25.38;;;1.90;1.00;;;;;;5020320;28;20296;-80
2023/01/25 11:14:01;;;;;;;45.92;21.95;;;;;;;;;;5019709;28;20225;-79
2023/01/25 11:16:34;;;;;;;34.22;19.13;;;1.50;1.00;;;;;;5019734;28;20210;-78
2023/01/25 11:19:04;;;;;;;39.95;18.27;;;2.00;1.00;;;;;;5019941;28;20648;-79
2023/01/25 11:21:32;;;;;;;34.78;20.08;;;1.60;1.00;;;;;;5018413;28;20260;-79
2023/01/25 11:24:18;;;;;;;29.10;17.38;;;1.50;1.00;;;;;;5021369;28;20232;-78
2023/01/25 11:26:46;;;;;;;35.17;19.42;;;1.80;99.90;;;;;;5025597;28;20216;-79
2023/01/25 11:29:16;;;;;;;42.40;19.98;;;1.50;1.00;;;;;;5021177;28;20211;-79
2023/01/25 11:31:45;;;;;;;42.58;23.55;;;1.90;1.00;;;;;;5021523;28;20291;-79
2023/01/25 11:34:15;;;;;;;57.83;28.80;;;2.00;1.00;;;;;;5045762;22;20224;-84
2023/01/25 11:36:51;;;;;;;43.17;24.90;;;1.80;1.00;;;;;;5028011;28;20251;-85
2023/01/25 11:39:39;;;;;;;42.38;22.27;;;1.60;1.00;;;;;;5036758;28;20200;-86
2023/01/25 11:42:25;;;;;;;53.55;24.95;;;1.70;1.00;;;;;;5033255;28;20280;-84
2023/01/25 11:45:13;;;;;;;43.92;21.60;;;2.20;1.00;;;;;;5030245;28;20226;-83
2023/01/25 11:47:54;;;;;;;51.30;22.85;;;1.90;1.00;;;;;;5029652;28;20185;-83
2023/01/25 11:50:35;;;;;;;38.33;21.42;;;1.80;1.00;;;;;;5028545;28;20251;-83
2023/01/25 11:53:27;;;;;;;34.33;18.92;;;2.10;1.00;;;;;;5027743;28;20639;-84
2023/01/25 11:55:58;;;;;;;43.45;20.83;;;1.60;1.00;;;;;;5027295;28;20574;-85
2023/01/25 11:58:43;;;;;;;37.90;21.73;;;2.10;1.00;;;;;;5027038;28;20208;-85
2023/01/25 12:01:17;;;;;;;45.40;22.67;;;1.90;1.00;;;;;;5025976;28;20292;-84
2023/01/25 12:04:12;;;;;;;42.60;20.17;;;1.80;1.00;;;;;;5025551;28;20628;-85
2023/01/25 12:06:55;;;;;;;41.92;22.80;;;1.80;1.00;;;;;;5026387;28;20188;-83
2023/01/25 12:09:33;;;;;;;38.05;21.65;;;1.80;1.00;;;;;;5032729;28;20248;-83
2023/01/25 12:12:18;;;;;;;39.80;22.45;;;1.90;1.00;;;;;;5035708;28;20219;-83
2023/01/25 12:14:58;;;;;;;38.03;20.23;;;2.00;1.00;;;;;;5033975;28;20288;-84
2023/01/25 12:17:48;;;;;;;39.00;23.15;;;1.60;1.00;;;;;;5033608;28;20205;-84
2023/01/25 12:20:42;;;;;;;42.90;20.75;;;1.80;1.00;;;;;;5033459;28;20683;-82
2023/01/25 12:23:29;;;;;;;47.90;24.40;;;2.10;1.00;;;;;;5016076;28;20204;-82
2023/01/25 12:26:14;;;;;;;43.85;21.98;;;2.00;1.00;;;;;;5032542;28;20319;-86
2023/01/25 12:28:45;;;;;;;53.78;22.70;;;1.70;1.00;;;;;;5028535;28;20636;-85
2023/01/25 12:31:17;;;;;;;37.38;20.33;;;1.30;1.00;;;;;;5025253;28;20252;-84
2023/01/25 12:33:50;;;;;;;48.38;21.38;;;1.50;1.00;;;;;;5025592;28;20189;-83
2023/01/25 12:36:22;;;;;;;46.05;22.40;;;1.40;1.00;;;;;;5027648;28;20189;-84
2023/01/25 12:38:56;;;;;;;41.75;21.02;;;1.70;1.00;;;;;;5028016;28;20185;-83
2023/01/25 12:41:33;;;;;;;41.67;21.35;;;1.60;1.00;;;;;;5039066;28;20209;-84
2023/01/25 12:44:08;;;;;;;45.30;25.38;;;1.60;1.00;;;;;;5030955;28;20248;-86
2023/01/25 12:46:40;;;;;;;43.72;23.65;;;1.70;1.00;;;;;;5030151;28;20251;-83
2023/01/25 12:49:17;;;;;;;43.88;22.73;;;1.70;1.00;;;;;;5031982;28;20215;-84
2023/01/25 12:51:45;;;;;;;39.65;20.60;;;1.60;1.00;;;;;;5028178;28;20270;-84
2023/01/25 12:54:20;;;;;;;40.22;19.48;;;1.60;1.00;;;;;;5026290;28;20220;-84
2023/01/25 12:56:53;;;;;;;38.40;18.98;;;1.60;1.00;;;;;;5024708;28;20615;-85
2023/01/25 12:59:29;;;;;;;38.50;19.60;;;1.80;1.00;;;;;;5023957;28;20655;-84
2023/01/25 13:02:01;;;;;;;37.00;18.95;;;1.80;1.00;;;;;;5024899;28;20252;-83
2023/01/25 13:04:44;;;;;;;37.80;19.35;;;1.90;1.00;;;;;;5023940;28;20224;-85